Time;durP1;ratioP1;P1;durP2;ratioP2;P2;SDS_P1;SDS_P2;PMS_P1;PMS_P2;Temp;Humidity;BMP_temperature;BMP_pressure;BME280_temperature;BME280_humidity;BME280_pressure;Samples;Min_cycle;Max_cycle;Signal;HPM_P1;HPM_P2
2023/09/10 00:02:03;;;;;;;10.07;4.67;;;22.40;99.90;;;22.54;63.60;101324.91;6103773;22;97732;-50
2023/09/10 00:04:32;;;;;;;8.27;4.60;;;22.40;99.90;;;22.53;63.33;101320.50;6107545;22;98431;-52
2023/09/10 00:06:57;;;;;;;8.33;5.40;;;22.40;99.90;;;22.53;64.35;101320.50;6106830;22;97960;-49
2023/09/10 00:09:23;;;;;;;6.40;5.10;;;22.40;99.90;;;22.54;64.11;101327.59;6113501;22;110966;-53
2023/09/10 00:11:49;;;;;;;4.20;3.10;;;22.40;99.90;;;22.51;63.54;101328.69;6103386;22;97305;-73
2023/09/10 00:14:20;;;;;;;3.30;2.67;;;22.40;99.90;;;22.47;62.27;101326.38;6061130;22;96851;-73
2023/09/10 00:16:46;;;;;;;2.60;2.40;;;22.30;99.90;;;22.44;62.34;101315.84;6116084;22;96908;-73
2023/09/10 00:19:12;;;;;;;4.57;3.00;;;22.30;99.90;;;22.45;62.25;101322.94;6079272;22;111668;-73
2023/09/10 00:21:38;;;;;;;3.47;3.00;;;22.30;99.90;;;22.45;62.45;101314.88;6111252;22;97178;-73
2023/09/10 00:24:05;;;;;;;4.03;3.00;;;22.40;99.90;;;22.45;62.27;101313.03;6116086;22;96973;-73
2023/09/10 00:26:31;;;;;;;4.00;3.33;;;22.40;99.90;;;22.47;62.28;101321.84;6118434;22;97212;-73
2023/09/10 00:28:57;;;;;;;4.40;3.90;;;22.40;99.90;;;22.47;62.64;101323.69;6084990;22;97553;-72
2023/09/10 00:31:23;;;;;;;4.68;3.90;;;22.40;99.90;;;22.45;62.88;101322.94;6084839;22;97745;-73
2023/09/10 00:33:49;;;;;;;3.77;3.07;;;22.40;99.90;;;22.46;62.63;101313.91;6113715;22;100135;-72
2023/09/10 00:36:15;;;;;;;4.27;3.33;;;22.40;99.90;;;22.47;62.59;101310.22;6113775;22;97013;-73
2023/09/10 00:38:40;;;;;;;3.07;2.60;;;22.40;99.90;;;22.46;62.32;101313.91;6113918;22;97434;-73
2023/09/10 00:41:07;;;;;;;4.13;3.00;;;22.40;99.90;;;22.46;62.48;101314.75;6112822;22;109256;-73
2023/09/10 00:43:34;;;;;;;4.00;2.97;;;22.40;99.90;;;22.47;62.61;101310.22;6118730;22;97283;-73
2023/09/10 00:46:00;;;;;;;4.90;3.30;;;22.40;99.90;;;22.49;62.80;101302.91;6114375;22;97443;-73
2023/09/10 00:48:26;;;;;;;5.10;3.07;;;22.40;99.90;;;22.47;62.80;101310.22;6110768;22;97928;-73
2023/09/10 00:50:52;;;;;;;3.97;2.73;;;22.40;99.90;;;22.47;62.59;101310.22;6115576;22;103120;-73
2023/09/10 00:53:21;;;;;;;3.87;2.60;;;22.40;99.90;;;22.47;62.44;101304.84;6086503;22;97370;-72
2023/09/10 00:55:47;;;;;;;3.37;3.07;;;22.40;99.90;;;22.47;62.48;101305.72;6112928;22;97393;-73
2023/09/10 00:58:13;;;;;;;3.07;2.77;;;22.40;99.90;;;22.47;62.26;101304.84;6108503;22;97538;-72
2023/09/10 01:00:43;;;;;;;5.10;2.97;;;22.40;99.90;;;22.47;62.40;101310.22;6088038;22;97653;-73
2023/09/10 01:03:10;;;;;;;7.50;4.90;;;22.40;99.90;;;22.51;63.16;101317.94;6113857;22;97125;-73
2023/09/10 01:05:36;;;;;;;3.60;3.10;;;22.40;99.90;;;22.51;63.00;101317.09;6114110;22;97138;-73
2023/09/10 01:08:03;;;;;;;5.73;4.27;;;22.40;99.90;;;22.46;62.97;101311.22;6090265;22;97413;-73
2023/09/10 01:10:42;;;;;;;7.97;4.37;;;22.40;99.90;;;22.48;63.01;101310.13;6085619;22;102080;-72
2023/09/10 01:13:28;;;;;;;3.87;2.70;;;22.40;99.90;;;22.45;62.92;101317.56;6107502;22;96917;-72
2023/09/10 01:16:06;;;;;;;6.13;4.33;;;22.40;99.90;;;22.45;63.26;101314.88;6115024;22;100764;-73
2023/09/10 01:18:43;;;;;;;9.30;5.13;;;22.30;99.90;;;22.45;63.11;101312.19;6108496;22;101810;-72
2023/09/10 01:21:57;;;;;;;6.30;4.27;;;22.30;99.90;;;22.45;63.84;101310.34;6107605;22;101388;-73
2023/09/10 01:24:48;;;;;;;8.17;4.60;;;22.30;99.90;;;22.41;63.15;101311.53;6111469;22;97137;-72
2023/09/10 01:27:15;;;;;;;6.47;4.00;;;22.20;99.90;;;22.40;63.67;101314.34;6113777;22;98992;-72
2023/09/10 01:29:41;;;;;;;4.10;2.90;;;22.20;99.90;;;22.38;63.81;101305.53;6115340;22;97136;-73
2023/09/10 01:32:52;;;;;;;3.87;2.87;;;22.20;99.90;;;22.38;63.63;101311.78;6062884;22;99099;-73
2023/09/10 01:35:33;;;;;;;4.63;2.83;;;22.20;99.90;;;22.37;63.24;101303.81;6084899;22;96962;-73
2023/09/10 01:38:14;;;;;;;7.30;4.30;;;22.20;99.90;;;22.37;63.46;101302.00;6112161;22;97610;-72
2023/09/10 01:40:46;;;;;;;8.80;4.63;;;22.20;99.90;;;22.36;63.41;101304.78;6086266;22;105093;-73
2023/09/10 01:43:12;;;;;;;5.10;3.87;;;22.20;99.90;;;22.35;63.02;101305.78;6117695;22;96584;-73
2023/09/10 01:45:38;;;;;;;3.73;3.33;;;22.20;99.90;;;22.34;62.93;101299.53;6114146;22;110426;-72
2023/09/10 01:48:05;;;;;;;4.83;3.53;;;22.20;99.90;;;22.36;62.98;101302.13;6090968;22;97213;-73
2023/09/10 01:50:31;;;;;;;6.50;5.07;;;22.20;99.90;;;22.36;63.31;101307.50;6115160;22;98717;-73
2023/09/10 01:53:01;;;;;;;8.70;4.70;;;22.20;99.90;;;22.36;63.42;101307.50;6086699;22;100741;-73
2023/09/10 01:55:26;;;;;;;5.33;3.07;;;22.20;99.90;;;22.34;63.08;101309.44;6114333;22;97413;-72
2023/09/10 01:57:54;;;;;;;3.42;2.83;;;22.20;99.90;;;22.32;63.72;101311.38;6115802;22;97494;-72
2023/09/10 02:00:21;;;;;;;4.97;4.23;;;22.20;99.90;;;22.33;62.99;101313.09;6099775;22;99113;-72
2023/09/10 02:02:48;;;;;;;5.03;3.97;;;22.20;99.90;;;22.33;62.77;101311.28;6087581;22;98804;-72
2023/09/10 02:05:14;;;;;;;7.63;4.70;;;22.20;99.90;;;22.35;62.91;101305.78;6109285;22;98008;-72
2023/09/10 02:07:40;;;;;;;6.33;4.33;;;22.20;99.90;;;22.34;63.54;101312.13;6086218;22;97240;-73
2023/09/10 02:10:07;;;;;;;5.03;3.27;;;22.20;99.90;;;22.33;63.36;101313.09;6111446;22;97354;-73
2023/09/10 02:12:34;;;;;;;7.57;4.73;;;22.20;99.90;;;22.33;63.00;101318.47;6117064;22;97270;-73
2023/09/10 02:15:00;;;;;;;9.77;4.53;;;22.20;99.90;;;22.32;63.18;101316.75;6086713;22;98041;-73
2023/09/10 02:17:26;;;;;;;8.90;5.00;;;22.20;99.90;;;22.30;63.21;101316.03;6058491;22;100911;-73
2023/09/10 02:19:52;;;;;;;4.17;3.20;;;22.10;99.90;;;22.30;63.16;101319.56;6107826;22;111936;-73
2023/09/10 02:22:17;;;;;;;4.20;3.03;;;22.10;99.90;;;22.29;63.01;101317.84;6115953;22;97255;-72
2023/09/10 02:24:49;;;;;;;6.70;4.30;;;22.10;99.90;;;22.30;62.94;101324.09;6114379;22;97207;-73
2023/09/10 02:27:15;;;;;;;3.30;2.67;;;22.20;99.90;;;22.30;63.03;101326.78;6114270;22;97387;-73
2023/09/10 02:29:41;;;;;;;3.70;2.57;;;22.20;99.90;;;22.30;62.98;101324.09;6111325;22;105668;-72
2023/09/10 02:32:07;;;;;;;7.90;5.27;;;22.20;99.90;;;22.30;63.11;101322.25;6110760;22;100658;-73
2023/09/10 02:34:32;;;;;;;5.97;4.67;;;22.10;99.90;;;22.30;63.15;101333.00;6087697;22;104686;-73
2023/09/10 02:36:59;;;;;;;3.93;3.30;;;22.10;99.90;;;22.27;63.08;101336.75;6113915;22;97368;-73
2023/09/10 02:39:25;;;;;;;4.63;2.90;;;22.10;99.90;;;22.27;62.97;101331.38;6078214;22;99283;-73
2023/09/10 02:41:51;;;;;;;4.67;2.77;;;22.10;99.90;;;22.27;63.25;101327.81;6113892;22;108515;-72
2023/09/10 02:44:16;;;;;;;5.77;3.73;;;22.10;99.90;;;22.27;63.03;101326.00;6104437;22;97289;-73
2023/09/10 02:46:42;;;;;;;4.27;3.57;;;22.20;99.90;;;22.30;62.84;101335.69;6086498;22;97451;-73
2023/09/10 02:49:08;;;;;;;6.00;3.63;;;22.20;99.90;;;22.30;62.94;101340.22;6110084;22;97407;-73
2023/09/10 02:51:34;;;;;;;3.17;2.87;;;22.20;99.90;;;22.29;62.89;101339.34;6118431;22;98720;-73
2023/09/10 02:54:00;;;;;;;3.03;2.60;;;22.20;99.90;;;22.30;62.82;101334.84;6114508;22;98399;-73
2023/09/10 02:56:25;;;;;;;5.47;3.03;;;22.20;99.90;;;22.28;62.86;101332.25;6116778;22;97143;-73
2023/09/10 02:58:51;;;;;;;4.43;3.17;;;22.10;99.90;;;22.28;62.95;101337.63;6115606;22;96626;-73
2023/09/10 03:01:17;;;;;;;5.63;2.77;;;22.10;99.90;;;22.27;63.00;101336.75;6115855;22;99180;-73
2023/09/10 03:03:43;;;;;;;3.07;2.77;;;22.10;99.90;;;22.27;63.04;101338.56;6111172;22;98013;-73
2023/09/10 03:06:12;;;;;;;4.13;3.27;;;22.20;99.90;;;22.29;62.99;101333.13;6114184;22;97075;-72
2023/09/10 03:08:38;;;;;;;4.17;3.33;;;22.20;99.90;;;22.30;62.73;101337.53;6089390;22;97460;-73
2023/09/10 03:11:05;;;;;;;5.93;4.13;;;22.10;99.90;;;22.28;62.78;101340.31;6118002;22;97567;-76
2023/09/10 03:13:31;;;;;;;5.20;3.67;;;22.10;99.90;;;22.27;62.80;101339.44;6118096;22;97370;-73
2023/09/10 03:15:56;;;;;;;3.33;2.63;;;22.10;99.90;;;22.26;62.98;101339.56;6088669;22;97252;-73
2023/09/10 03:18:22;;;;;;;5.50;2.90;;;22.10;99.90;;;22.25;63.04;101343.22;6083321;22;105040;-72
2023/09/10 03:20:48;;;;;;;3.40;3.07;;;22.10;99.90;;;22.26;62.93;101340.41;6088295;22;99284;-72
2023/09/10 03:23:14;;;;;;;3.00;2.70;;;22.10;99.90;;;22.25;63.05;101344.06;6116182;22;97648;-73
2023/09/10 03:25:40;;;;;;;4.90;2.93;;;22.10;99.90;;;22.24;63.00;101341.50;6086953;22;97590;-73
2023/09/10 03:28:06;;;;;;;4.03;3.40;;;22.10;99.90;;;22.24;63.09;101342.34;6115957;22;97053;-73
2023/09/10 03:30:32;;;;;;;3.53;3.23;;;22.10;99.90;;;22.24;63.08;101341.50;6119335;22;97336;-72
2023/09/10 03:32:58;;;;;;;3.70;2.80;;;22.10;99.90;;;22.24;62.90;101346.88;6113653;22;97116;-72
2023/09/10 03:35:24;;;;;;;3.77;2.93;;;22.10;99.90;;;22.22;63.01;101344.31;6114838;22;105646;-73
2023/09/10 03:37:50;;;;;;;3.50;2.80;;;22.10;99.90;;;22.23;63.08;101343.31;6111288;22;98081;-73
2023/09/10 03:40:16;;;;;;;4.50;2.70;;;22.10;99.90;;;22.23;62.93;101342.47;6112761;22;97355;-72
2023/09/10 03:42:42;;;;;;;3.27;2.80;;;22.10;99.90;;;22.24;62.93;101345.03;6116578;22;96917;-73
2023/09/10 03:45:09;;;;;;;3.80;3.10;;;22.10;99.90;;;22.25;62.85;101340.53;6115488;22;96999;-73
2023/09/10 03:47:37;;;;;;;3.43;2.97;;;22.10;99.90;;;22.25;62.99;101345.91;6115515;22;99083;-75
2023/09/10 03:50:04;;;;;;;3.60;3.10;;;22.10;99.90;;;22.25;62.83;101338.69;6117008;22;97587;-73
2023/09/10 03:52:30;;;;;;;3.93;2.97;;;22.10;99.90;;;22.25;62.89;101338.69;6112681;22;97104;-72
2023/09/10 03:54:56;;;;;;;2.93;2.43;;;22.10;99.90;;;22.26;63.00;101344.94;6088674;22;107275;-72
2023/09/10 03:57:22;;;;;;;4.43;2.87;;;22.10;99.90;;;22.26;63.05;101351.16;6087521;22;108523;-73
2023/09/10 03:59:47;;;;;;;3.53;2.77;;;22.10;99.90;;;22.26;63.03;101344.94;6113643;22;97402;-72
2023/09/10 04:02:13;;;;;;;6.50;2.90;;;22.10;99.90;;;22.26;62.91;101343.09;6116120;22;96513;-73
2023/09/10 04:04:41;;;;;;;2.73;2.47;;;22.20;99.90;;;22.29;62.83;101343.88;6088963;22;97347;-73
2023/09/10 04:07:07;;;;;;;3.57;2.70;;;22.20;99.90;;;22.27;62.63;101341.25;6089259;22;97102;-75
2023/09/10 04:09:32;;;;;;;3.07;2.73;;;22.10;99.90;;;22.26;62.80;101342.25;6117785;22;97386;-72
2023/09/10 04:11:58;;;;;;;3.67;2.83;;;22.10;99.90;;;22.25;62.93;101344.06;6113296;22;97200;-72
2023/09/10 04:14:26;;;;;;;3.03;2.60;;;22.10;99.90;;;22.25;62.99;101340.53;6089088;22;97015;-73
2023/09/10 04:16:52;;;;;;;4.60;2.50;;;22.10;99.90;;;22.26;62.95;101344.94;6112571;22;97290;-73
2023/09/10 04:19:17;;;;;;;3.00;2.50;;;22.20;99.90;;;22.27;62.91;101338.56;6083651;22;105991;-73
2023/09/10 04:21:45;;;;;;;3.63;2.73;;;22.20;99.90;;;22.27;62.96;101339.44;6068090;22;97110;-73
2023/09/10 04:24:11;;;;;;;5.17;3.07;;;22.20;99.90;;;22.27;62.63;101334.06;6088373;22;97921;-73
2023/09/10 04:26:37;;;;;;;4.20;3.30;;;22.20;99.90;;;22.27;62.81;101331.38;6113873;22;97159;-72
2023/09/10 04:29:03;;;;;;;5.60;4.20;;;22.20;99.90;;;22.27;62.16;101342.13;6121179;22;97060;-71
2023/09/10 04:31:29;;;;;;;8.40;4.77;;;22.10;99.90;;;22.22;62.71;101344.31;6109991;22;97404;-72
2023/09/10 04:33:55;;;;;;;6.97;4.93;;;22.00;99.90;;;22.16;62.83;101342.06;6115029;22;97245;-72
2023/09/10 04:38:52;;;;;;;4.83;3.43;;;21.70;99.90;;;22.04;63.57;101340.25;6116950;22;97279;-44
2023/09/10 04:41:18;;;;;;;3.67;2.97;;;21.70;99.90;;;22.04;63.67;101340.25;6113377;22;96615;-44
2023/09/10 04:43:44;;;;;;;4.53;3.40;;;21.80;99.90;;;22.06;63.53;101338.34;6118288;22;97169;-44
2023/09/10 04:46:10;;;;;;;3.90;2.97;;;21.90;99.90;;;22.06;63.59;101343.72;6116413;22;114552;-44
2023/09/10 04:48:35;;;;;;;6.80;4.77;;;21.90;99.90;;;22.06;63.29;101343.72;6122659;22;97719;-43
2023/09/10 04:51:01;;;;;;;5.03;2.87;;;21.80;99.90;;;22.06;63.55;101343.72;6116095;22;97030;-42
2023/09/10 04:53:27;;;;;;;4.50;2.97;;;21.80;99.90;;;22.06;63.69;101342.84;6117881;22;97398;-45
2023/09/10 04:55:54;;;;;;;3.37;3.07;;;21.90;99.90;;;22.06;63.81;101338.34;6116694;22;97087;-46
2023/09/10 04:58:20;;;;;;;3.57;3.00;;;21.90;99.90;;;22.07;63.69;101340.06;6114868;22;97455;-45
2023/09/10 05:00:46;;;;;;;4.17;3.20;;;21.90;99.90;;;22.09;63.52;101343.47;6117185;22;96840;-47
2023/09/10 05:03:12;;;;;;;3.10;2.60;;;21.90;99.90;;;22.11;63.31;101346.91;6119219;22;97390;-47
2023/09/10 05:05:37;;;;;;;2.97;2.60;;;22.00;99.90;;;22.13;63.44;101350.38;6116004;22;97243;-46
2023/09/10 05:08:03;;;;;;;3.63;3.10;;;22.00;99.90;;;22.15;63.20;101348.44;6122233;22;108378;-46
2023/09/10 05:10:30;;;;;;;2.97;2.40;;;22.00;99.90;;;22.18;63.39;101341.97;6114656;22;96620;-47
2023/09/10 05:12:56;;;;;;;3.40;2.83;;;22.10;99.90;;;22.18;63.26;101342.81;6114859;22;96999;-45
2023/09/10 05:15:22;;;;;;;4.00;3.47;;;22.10;99.90;;;22.21;63.12;101347.97;6116942;22;97329;-44
2023/09/10 05:17:48;;;;;;;4.30;3.17;;;22.10;99.90;;;22.21;62.66;101358.72;6113132;22;97417;-46
2023/09/10 05:20:14;;;;;;;4.27;3.13;;;22.10;99.90;;;22.20;62.99;101358.81;6118671;22;97133;-46
2023/09/10 05:22:39;;;;;;;3.50;3.00;;;22.10;99.90;;;22.19;63.14;101355.28;6117511;22;96545;-46
2023/09/10 05:25:06;;;;;;;3.30;2.87;;;22.10;99.90;;;22.18;63.09;101358.94;6119283;22;97422;-43
2023/09/10 05:27:32;;;;;;;4.57;3.70;;;22.00;99.90;;;22.16;63.17;101355.50;6118843;22;105028;-43
2023/09/10 05:29:58;;;;;;;3.77;2.83;;;22.00;99.90;;;22.16;63.18;101358.19;6112400;22;97552;-45
2023/09/10 05:32:24;;;;;;;3.17;2.87;;;22.00;99.90;;;22.15;63.31;101359.16;6118156;22;97043;-45
2023/09/10 05:34:49;;;;;;;4.47;3.27;;;22.00;99.90;;;22.15;63.38;101359.16;6119269;22;97332;-45
2023/09/10 05:37:15;;;;;;;4.40;2.93;;;22.00;99.90;;;22.17;63.35;101359.06;6116855;22;116825;-48
2023/09/10 05:39:41;;;;;;;5.00;3.20;;;22.00;99.90;;;22.18;63.15;101358.94;6113500;22;96984;-46
2023/09/10 05:42:07;;;;;;;3.10;2.80;;;22.10;99.90;;;22.19;63.14;101355.28;6118676;22;98733;-50
2023/09/10 05:44:33;;;;;;;3.80;2.83;;;22.10;99.90;;;22.21;63.00;101358.72;6091517;22;100515;-43
2023/09/10 05:46:58;;;;;;;3.10;2.80;;;22.10;99.90;;;22.23;62.98;101362.13;6118858;22;99174;-47
2023/09/10 05:49:25;;;;;;;3.23;2.93;;;22.10;99.90;;;22.24;62.68;101357.63;6115921;22;97400;-44
2023/09/10 05:51:51;;;;;;;4.17;3.20;;;22.10;99.90;;;22.22;63.11;101365.78;6087215;22;97437;-47
2023/09/10 05:54:16;;;;;;;3.67;3.00;;;22.10;99.90;;;22.19;63.36;101360.66;6117121;22;109456;-43
2023/09/10 05:56:42;;;;;;;7.87;4.30;;;22.00;99.90;;;22.17;63.68;101367.97;6116479;22;97561;-43
2023/09/10 05:59:08;;;;;;;5.23;4.60;;;21.90;99.90;;;22.14;63.97;101368.22;6119925;22;96911;-48
2023/09/10 06:01:34;;;;;;;7.80;4.67;;;21.90;99.90;;;22.09;64.37;101375.72;6124195;22;97090;-47
2023/09/10 06:03:59;;;;;;;7.17;5.00;;;21.80;99.90;;;22.05;64.77;101370.66;6118535;22;97666;-46
2023/09/10 06:06:27;;;;;;;8.80;5.67;;;21.70;99.90;;;22.03;64.80;101368.09;6121176;22;97052;-44
2023/09/10 06:08:53;;;;;;;4.00;3.20;;;21.70;99.90;;;22.02;63.96;101368.19;6117423;22;97518;-43
2023/09/10 06:11:19;;;;;;;3.20;2.80;;;21.80;99.90;;;22.04;63.71;101372.50;6123107;22;97596;-43
2023/09/10 06:13:45;;;;;;;4.80;3.40;;;21.80;99.90;;;22.07;63.71;101377.66;6123734;22;97526;-44
2023/09/10 06:16:11;;;;;;;2.83;2.47;;;21.90;99.90;;;22.10;63.65;101374.75;6121290;22;108438;-43
2023/09/10 06:18:36;;;;;;;4.33;2.83;;;21.90;99.90;;;22.11;63.58;101376.47;6124219;22;97255;-42
2023/09/10 06:21:02;;;;;;;3.03;2.70;;;22.00;99.90;;;22.12;63.61;101374.63;6120447;22;107037;-43
2023/09/10 06:23:28;;;;;;;2.73;2.53;;;22.00;99.90;;;22.15;63.40;101386.03;6119805;22;97128;-43
2023/09/10 06:25:54;;;;;;;3.23;2.63;;;22.10;99.90;;;22.19;63.27;101376.78;6122467;22;100384;-43
2023/09/10 06:28:20;;;;;;;3.43;3.00;;;22.10;99.90;;;22.23;63.37;101377.41;6096816;22;106547;-43
2023/09/10 06:30:46;;;;;;;3.37;2.63;;;22.20;99.90;;;22.23;63.16;101383.63;6095947;22;97000;-42
2023/09/10 06:33:12;;;;;;;3.30;3.00;;;22.20;99.90;;;22.23;63.12;101380.94;6124276;22;97248;-43
2023/09/10 06:35:38;;;;;;;3.77;3.20;;;22.20;99.90;;;22.27;63.02;101384.25;6122435;22;102014;-46
2023/09/10 06:38:04;;;;;;;3.87;3.07;;;22.20;99.90;;;22.30;62.77;101388.56;6124861;22;97160;-42
2023/09/10 06:40:30;;;;;;;3.57;2.57;;;22.20;99.90;;;22.28;62.80;101386.00;6122974;22;97418;-46
2023/09/10 06:42:56;;;;;;;3.80;3.20;;;22.20;99.90;;;22.30;62.86;101383.19;6119462;22;98522;-43
2023/09/10 06:45:22;;;;;;;7.03;5.07;;;22.30;99.90;;;22.35;64.38;101383.72;6122752;22;97000;-43
2023/09/10 06:47:48;;;;;;;5.17;3.37;;;22.30;99.90;;;22.34;62.72;101382.00;6121469;22;108703;-44
2023/09/10 06:50:14;;;;;;;4.03;2.63;;;22.30;99.90;;;22.34;62.74;101382.84;6121381;22;96920;-45
2023/09/10 06:52:40;;;;;;;3.37;2.80;;;22.30;99.90;;;22.35;62.39;101378.34;6122853;22;97661;-49
2023/09/10 06:55:06;;;;;;;5.03;4.17;;;22.30;99.90;;;22.36;62.82;101382.75;6125344;22;99225;-43
2023/09/10 06:57:32;;;;;;;3.27;2.93;;;22.30;99.90;;;22.36;62.66;101377.38;6121921;22;97591;-43
2023/09/10 06:59:58;;;;;;;6.67;4.97;;;22.30;99.90;;;22.42;66.33;101393.03;6124314;22;96808;-44
2023/09/10 07:02:25;;;;;;;8.27;5.13;;;22.30;99.90;;;22.43;66.91;101389.41;6119855;22;97509;-43
2023/09/10 07:04:51;;;;;;;9.00;5.43;;;22.30;99.90;;;22.40;66.92;101389.59;6120392;22;97239;-45
2023/09/10 07:07:17;;;;;;;6.53;4.77;;;22.30;99.90;;;22.40;67.21;101389.59;6120693;22;104560;-45
2023/09/10 07:09:43;;;;;;;4.13;3.13;;;22.30;99.90;;;22.35;64.09;101389.09;6119968;22;96909;-45
2023/09/10 07:12:08;;;;;;;6.67;4.67;;;22.20;99.90;;;22.35;65.94;101387.25;6123364;22;97630;-47
2023/09/10 07:14:34;;;;;;;11.80;5.50;;;22.30;99.90;;;22.37;67.56;101388.00;6123348;22;112658;-44
2023/09/10 07:17:00;;;;;;;8.50;4.83;;;22.20;99.90;;;22.37;68.37;101388.00;6121732;22;96944;-43
2023/09/10 07:19:26;;;;;;;6.90;5.27;;;22.20;99.90;;;22.39;68.84;101393.25;6122500;22;96537;-46
2023/09/10 07:21:51;;;;;;;7.93;5.37;;;22.20;99.90;;;22.37;68.58;101392.50;6119296;22;116938;-44
2023/09/10 07:24:17;;;;;;;5.83;4.40;;;22.20;99.90;;;22.36;66.10;101393.50;6121350;22;99056;-44
2023/09/10 07:26:43;;;;;;;6.27;4.70;;;22.20;99.90;;;22.36;67.62;101394.34;6121135;22;97095;-43
2023/09/10 07:29:09;;;;;;;8.90;5.13;;;22.20;99.90;;;22.37;68.42;101395.22;6121437;22;96928;-43
2023/09/10 07:31:35;;;;;;;7.67;5.40;;;22.20;99.90;;;22.36;66.36;101399.72;6096357;22;102603;-44
2023/09/10 07:34:02;;;;;;;8.67;5.97;;;22.20;99.90;;;22.40;68.42;101405.72;6119762;22;97523;-43
2023/09/10 07:36:29;;;;;;;9.20;6.20;;;22.30;99.90;;;22.41;69.19;101402.06;6120113;22;97346;-42
2023/09/10 07:38:55;;;;;;;8.67;6.43;;;22.30;99.90;;;22.42;69.62;101411.84;6121888;22;96782;-43
2023/09/10 07:41:21;;;;;;;9.00;6.25;;;22.30;99.90;;;22.44;69.67;101418.84;6121246;22;96552;-43
2023/09/10 07:43:47;;;;;;;11.93;6.77;;;22.30;99.90;;;22.45;69.90;101414.34;6119131;22;98369;-44
2023/09/10 07:46:13;;;;;;;8.10;6.25;;;22.30;99.90;;;22.45;70.29;101414.34;6120995;22;96539;-43
2023/09/10 07:48:39;;;;;;;13.60;7.00;;;22.30;99.90;;;22.46;69.90;101422.28;6117671;22;97126;-43
2023/09/10 07:51:05;;;;;;;12.53;6.90;;;22.40;99.90;;;22.45;64.23;101425.94;6094563;22;106614;-45
2023/09/10 07:53:33;;;;;;;4.90;4.10;;;22.40;99.90;;;22.42;63.62;101431.53;6117728;22;97409;-43
2023/09/10 07:55:59;;;;;;;9.07;5.63;;;22.40;99.90;;;22.47;67.68;101425.81;6116701;22;97443;-43
2023/09/10 07:58:25;;;;;;;8.63;5.35;;;22.40;99.90;;;22.50;64.15;101422.91;6092543;22;98653;-46
2023/09/10 08:00:56;;;;;;;6.30;3.83;;;22.50;99.90;;;22.50;63.41;101422.91;6116854;22;98234;-43
2023/09/10 08:03:23;;;;;;;6.20;4.63;;;22.50;99.90;;;22.48;63.61;101436.47;6116078;22;98185;-45
2023/09/10 08:05:48;;;;;;;4.13;3.57;;;22.50;99.90;;;22.52;63.70;101423.66;6118676;22;97355;-45
2023/09/10 08:08:15;;;;;;;8.33;5.13;;;22.50;99.90;;;22.60;68.00;101428.47;6116709;22;97572;-43
2023/09/10 08:10:44;;;;;;;8.60;5.18;;;22.50;99.90;;;22.54;63.20;101424.38;6116052;22;109028;-45
2023/09/10 08:13:14;;;;;;;7.53;4.83;;;22.50;99.90;;;22.55;63.67;101426.09;6115926;22;100852;-43
2023/09/10 08:15:41;;;;;;;9.00;5.73;;;22.50;99.90;;;22.61;67.03;101425.66;6115441;22;96859;-43
2023/09/10 08:18:10;;;;;;;9.23;5.10;;;22.60;99.90;;;22.64;63.76;101425.44;6122426;22;96937;-44
2023/09/10 08:20:42;;;;;;;8.98;4.97;;;22.60;99.90;;;22.66;63.98;101428.00;6117608;22;101070;-43
2023/09/10 08:23:09;;;;;;;7.17;5.27;;;22.60;99.90;;;22.73;68.41;101422.06;6114651;22;100585;-45
2023/09/10 08:25:35;;;;;;;6.67;4.43;;;22.70;99.90;;;22.73;63.36;101424.75;6120789;22;97814;-49
2023/09/10 08:28:03;;;;;;;3.85;3.35;;;22.70;99.90;;;22.60;63.21;101423.94;6115854;22;97410;-45
2023/09/10 08:30:30;;;;;;;4.47;3.42;;;22.60;99.90;;;22.56;63.14;101423.28;6116494;22;98006;-46
2023/09/10 08:32:56;;;;;;;5.35;4.05;;;22.60;99.90;;;22.57;62.87;101426.88;6116440;22;98113;-44
2023/09/10 08:35:23;;;;;;;9.70;4.85;;;22.60;99.90;;;22.63;62.53;101421.03;6091210;22;97326;-43
2023/09/10 08:37:49;;;;;;;9.32;4.45;;;22.60;99.90;;;22.62;63.48;101419.31;6117121;22;97552;-43
2023/09/10 08:40:16;;;;;;;7.35;5.47;;;22.60;99.90;;;22.78;68.32;101422.56;6118023;22;97240;-43
2023/09/10 08:42:48;;;;;;;8.63;5.53;;;22.70;99.90;;;22.80;63.96;101420.63;6122015;22;96925;-43
2023/09/10 08:45:14;;;;;;;5.03;4.05;;;22.80;99.90;;;22.77;62.39;101415.47;6119781;22;97061;-42
2023/09/10 08:47:43;;;;;;;6.70;4.00;;;22.80;99.90;;;22.69;62.87;101409.81;6083502;22;96972;-73
2023/09/10 08:50:13;;;;;;;5.85;4.40;;;22.70;99.90;;;22.60;62.86;101409.66;6051548;22;100372;-74
2023/09/10 08:52:45;;;;;;;6.30;4.68;;;22.60;99.90;;;22.51;63.08;101403.97;6101341;22;101702;-73
2023/09/10 08:55:13;;;;;;;3.78;3.00;;;22.60;99.90;;;22.45;63.04;101406.25;6102961;22;97208;-74
2023/09/10 08:57:42;;;;;;;4.80;3.97;;;22.50;99.90;;;22.45;62.95;101404.44;6077161;22;97504;-74
2023/09/10 09:00:14;;;;;;;5.07;3.55;;;22.50;99.90;;;22.47;63.11;101401.63;6067793;22;102839;-73
2023/09/10 09:02:50;;;;;;;7.15;3.97;;;22.50;99.90;;;22.50;62.71;101401.41;5769282;22;100769;-75
2023/09/10 09:05:16;;;;;;;5.90;3.63;;;22.50;99.90;;;22.45;63.04;101403.56;5998325;22;96914;-73
2023/09/10 09:08:10;;;;;;;7.13;4.97;;;22.50;99.90;;;22.50;62.78;101401.41;6055204;22;98819;-75
2023/09/10 09:10:36;;;;;;;5.90;4.53;;;22.50;99.90;;;22.53;62.64;101402.03;6075088;22;100470;-72
2023/09/10 09:13:09;;;;;;;6.80;3.97;;;22.50;99.90;;;22.60;62.57;101397.06;6105792;22;97815;-74
2023/09/10 09:15:39;;;;;;;9.32;4.55;;;22.60;99.90;;;22.61;65.36;101398.78;6098306;22;97026;-73
2023/09/10 09:18:11;;;;;;;6.40;3.75;;;22.60;99.90;;;22.65;62.59;101400.25;6072409;22;96919;-74
2023/09/10 09:20:40;;;;;;;6.28;4.50;;;22.70;99.90;;;22.71;62.81;101402.50;6062896;22;100478;-72
2023/09/10 09:23:17;;;;;;;5.90;4.45;;;22.70;99.90;;;22.78;62.42;101394.81;6060765;22;101968;-74
2023/09/10 09:25:44;;;;;;;9.25;5.00;;;22.80;99.90;;;22.85;63.18;101390.72;6077343;22;100691;-74
2023/09/10 09:28:12;;;;;;;7.75;4.70;;;22.90;99.90;;;22.98;62.88;101393.34;6053020;22;97089;-72
2023/09/10 09:30:39;;;;;;;6.60;3.80;;;23.10;99.90;;;22.92;61.86;101391.97;6075714;22;102093;-76
2023/09/10 09:33:06;;;;;;;3.85;3.42;;;23.10;99.90;;;22.83;62.30;101396.22;6037324;22;97309;-74
2023/09/10 09:35:35;;;;;;;8.77;3.95;;;23.00;99.90;;;22.77;62.24;101393.97;6063310;22;97184;-74
2023/09/10 09:38:09;;;;;;;6.93;3.92;;;22.80;99.90;;;22.76;62.15;101392.25;6106480;22;96826;-74
2023/09/10 09:40:37;;;;;;;4.88;4.18;;;22.80;99.90;;;22.80;62.20;101398.25;6094028;22;101408;-74
2023/09/10 09:43:08;;;;;;;10.15;4.72;;;22.80;99.90;;;22.80;62.18;101388.34;6109370;22;97501;-74
2023/09/10 09:45:38;;;;;;;6.82;4.88;;;22.80;99.90;;;22.83;64.06;101388.13;6105289;22;97392;-74
2023/09/10 09:48:05;;;;;;;10.52;5.00;;;22.80;99.90;;;22.88;62.53;101384.28;6075152;22;97591;-74
2023/09/10 09:50:31;;;;;;;5.28;4.22;;;22.90;99.90;;;22.96;62.95;101376.47;6107200;22;97781;-74
2023/09/10 09:52:57;;;;;;;5.40;4.07;;;23.00;99.90;;;22.89;61.84;101385.97;6044341;22;97871;-74
2023/09/10 09:55:23;;;;;;;4.15;3.50;;;23.00;99.90;;;22.85;61.95;101379.94;6098818;22;96763;-73
2023/09/10 09:57:50;;;;;;;5.03;3.42;;;23.00;99.90;;;22.83;61.78;101382.75;6109114;22;96945;-73
2023/09/10 10:00:17;;;;;;;7.95;4.25;;;22.90;99.90;;;22.83;61.83;101379.22;6077513;22;98942;-73
2023/09/10 10:02:46;;;;;;;4.43;3.67;;;22.90;99.90;;;22.82;62.04;101375.66;6082925;22;97407;-74
2023/09/10 10:05:12;;;;;;;6.85;4.28;;;22.90;99.90;;;23.07;65.41;101371.13;6065627;22;113618;-74
2023/09/10 10:07:41;;;;;;;5.55;4.05;;;23.10;99.90;;;22.98;61.44;101369.13;6106507;22;97954;-73
2023/09/10 10:10:17;;;;;;;4.45;3.50;;;23.10;99.90;;;22.89;61.71;101370.69;6081334;22;100153;-74
2023/09/10 10:12:45;;;;;;;8.73;4.00;;;23.00;99.90;;;22.79;62.08;101359.75;6085919;22;102182;-74
2023/09/10 10:15:12;;;;;;;7.13;3.85;;;22.90;99.90;;;22.88;62.19;101365.44;6105837;22;96876;-74